Time;durP1;ratioP1;P1;durP2;ratioP2;P2;SDS_P1;SDS_P2;PMS_P1;PMS_P2;Temp;Humidity;BMP_temperature;BMP_pressure;BME280_temperature;BME280_humidity;BME280_pressure;Samples;Min_cycle;Max_cycle;Signal;HPM_P1;HPM_P2
2022/07/03 00:01:21;;;;;;;9.57;4.88;;;;;;;;;;5054563;28;20036;-62
2022/07/03 00:03:47;;;;;;;13.68;5.25;;;;;;;;;;5054562;28;20078;-63
2022/07/03 00:06:12;;;;;;;10.55;5.38;;;;;;;;;;5054262;28;20112;-64
2022/07/03 00:08:38;;;;;;;12.65;5.28;;;;;;;;;;5054388;28;20110;-64
2022/07/03 00:11:08;;;;;;;8.20;5.30;;;;;;;;;;5054403;28;20032;-63
2022/07/03 00:13:33;;;;;;;5.93;4.47;;;;;;;;;;5052909;28;20041;-62
2022/07/03 00:15:59;;;;;;;7.15;4.78;;;;;;;;;;5054225;28;20044;-63
2022/07/03 00:18:24;;;;;;;8.77;4.43;;;;;;;;;;5054301;28;20033;-62
2022/07/03 00:21:00;;;;;;;7.45;4.85;;;;;;;;;;5053705;28;20053;-63
2022/07/03 00:23:30;;;;;;;7.10;4.38;;;;;;;;;;5054113;28;20033;-62
2022/07/03 00:25:58;;;;;;;6.22;4.22;;;;;;;;;;5054077;28;20078;-64
2022/07/03 00:28:24;;;;;;;6.25;5.00;;;;;;;;;;5054135;28;20025;-65
2022/07/03 00:30:52;;;;;;;6.88;4.38;;;;;;;;;;5053909;28;20020;-64
2022/07/03 00:33:18;;;;;;;6.95;4.47;;;;;;;;;;5054090;28;20055;-64
2022/07/03 00:35:46;;;;;;;7.90;4.40;;;;;;;;;;5053800;28;20462;-63
2022/07/03 00:38:12;;;;;;;8.27;4.60;;;;;;;;;;5053851;28;20489;-64
2022/07/03 00:40:38;;;;;;;7.70;4.72;;;;;;;;;;5054016;28;20033;-64
2022/07/03 00:43:04;;;;;;;9.52;4.50;;;;;;;;;;5053702;28;20056;-65
2022/07/03 00:45:34;;;;;;;6.90;4.57;;;;;;;;;;5053633;28;20090;-64
2022/07/03 00:48:01;;;;;;;8.05;5.05;;;;;;;;;;5053750;28;20032;-66
2022/07/03 00:50:34;;;;;;;6.72;4.60;;;;;;;;;;5053411;28;20032;-65
2022/07/03 00:53:02;;;;;;;8.65;4.80;;;;;;;;;;5053536;28;20029;-64
2022/07/03 00:55:28;;;;;;;7.95;4.65;;;;;;;;;;5053490;28;20029;-64
2022/07/03 00:57:56;;;;;;;10.07;5.45;;;;;;;;;;5053683;28;20017;-64
2022/07/03 01:00:22;;;;;;;6.88;4.60;;;;;;;;;;5053452;28;20033;-65
2022/07/03 01:02:55;;;;;;;8.20;4.80;;;;;;;;;;5053434;28;20037;-65
2022/07/03 01:05:43;;;;;;;9.27;5.10;;;;;;;;;;5053286;28;20037;-65
2022/07/03 01:08:30;;;;;;;6.07;4.75;;;;;;;;;;5053312;28;20029;-64
2022/07/03 01:11:21;;;;;;;7.57;5.10;;;;;;;;;;5053339;28;20036;-63
2022/07/03 01:14:11;;;;;;;9.23;5.63;;;;;;;;;;5053327;28;20051;-65
2022/07/03 01:16:45;;;;;;;7.57;5.30;;;;;;;;;;5053390;28;20028;-62
2022/07/03 01:19:23;;;;;;;6.68;5.47;;;;;;;;;;5053001;28;20170;-62
2022/07/03 01:21:51;;;;;;;6.95;5.03;;;;;;;;;;5052863;28;20535;-64
2022/07/03 01:24:26;;;;;;;8.48;5.40;;;;;;;;;;5053022;28;20028;-64
2022/07/03 01:26:57;;;;;;;7.10;5.28;;;;;;;;;;5052925;28;20025;-63
2022/07/03 01:29:29;;;;;;;5.95;4.82;;;;;;;;;;5053061;28;20077;-66
2022/07/03 01:31:55;;;;;;;9.23;4.90;;;;;;;;;;5052873;28;20029;-66
2022/07/03 01:34:24;;;;;;;7.97;4.95;;;;;;;;;;5052649;28;20461;-65
2022/07/03 01:36:54;;;;;;;8.13;5.00;;;;;;;;;;5051671;28;20020;-64
2022/07/03 01:39:25;;;;;;;11.65;5.55;;;;;;;;;;5053010;28;20021;-66
2022/07/03 01:41:55;;;;;;;8.13;5.30;;;;;;;;;;5052937;28;20028;-65
2022/07/03 01:44:25;;;;;;;5.85;4.75;;;;;;;;;;5052872;28;20053;-65
2022/07/03 01:46:53;;;;;;;6.88;4.60;;;;;;;;;;5051156;28;20470;-66
2022/07/03 01:49:20;;;;;;;6.97;5.15;;;;;;;;;;5052748;28;20082;-65
2022/07/03 01:51:50;;;;;;;8.50;4.90;;;;;;;;;;5052632;28;20027;-66
2022/07/03 01:54:17;;;;;;;9.73;5.28;;;;;;;;;;5052663;28;20056;-66
2022/07/03 01:56:44;;;;;;;7.43;5.10;;;;;;;;;;5050846;28;20044;-66
2022/07/03 01:59:11;;;;;;;6.15;4.72;;;;;;;;;;5052631;28;20021;-63
2022/07/03 02:01:50;;;;;;;7.82;4.60;;;;;;;;;;5052302;28;20029;-66
2022/07/03 02:04:44;;;;;;;6.15;5.15;;;;;;;;;;5052590;28;20021;-66
2022/07/03 02:07:17;;;;;;;7.82;5.05;;;;;;;;;;5052572;28;20325;-65
2022/07/03 02:10:00;;;;;;;6.80;4.68;;;;;;;;;;5052516;28;20108;-65
2022/07/03 02:12:33;;;;;;;7.45;5.18;;;;;;;;;;5052356;28;20029;-64
2022/07/03 02:15:05;;;;;;;6.50;5.32;;;;;;;;;;5052471;28;20032;-65
2022/07/03 02:17:42;;;;;;;7.20;5.38;;;;;;;;;;5052287;28;20025;-65
2022/07/03 02:20:09;;;;;;;7.43;5.13;;;;;;;;;;5052198;28;20037;-65
2022/07/03 02:22:39;;;;;;;7.28;5.53;;;;;;;;;;5052059;28;20040;-65
2022/07/03 02:25:08;;;;;;;6.85;4.90;;;;;;;;;;5052439;28;20028;-64
2022/07/03 02:27:43;;;;;;;7.25;5.05;;;;;;;;;;5052222;28;20033;-65
2022/07/03 02:30:11;;;;;;;6.35;5.47;;;;;;;;;;5052292;28;20033;-63
2022/07/03 02:32:43;;;;;;;6.50;5.35;;;;;;;;;;5051950;28;20598;-65
2022/07/03 02:35:17;;;;;;;6.38;5.15;;;;;;;;;;5052547;28;20414;-65
2022/07/03 02:38:03;;;;;;;7.95;5.18;;;;;;;;;;5052340;28;20051;-65
2022/07/03 02:40:56;;;;;;;7.60;5.20;;;;;;;;;;5052280;28;20037;-65
2022/07/03 02:43:41;;;;;;;11.38;5.43;;;;;;;;;;5052233;28;20474;-65
2022/07/03 02:49:20;;;;;;;8.50;6.07;;;;;;;;;;5052199;28;20036;-65
2022/07/03 02:51:58;;;;;;;5.88;5.28;;;;;;;;;;5052215;28;20027;-65
2022/07/03 02:54:24;;;;;;;6.82;5.57;;;;;;;;;;5052227;28;20135;-65
2022/07/03 02:57:08;;;;;;;7.80;5.70;;;;;;;;;;5052042;28;20029;-65
2022/07/03 03:00:15;;;;;;;7.75;5.28;;;;;;;;;;5051847;28;20025;-65
2022/07/03 03:02:55;;;;;;;9.82;5.55;;;;;;;;;;5038722;28;20033;-64
2022/07/03 03:05:49;;;;;;;9.65;5.78;;;;;;;;;;5051962;28;20029;-65
2022/07/03 03:08:28;;;;;;;7.35;5.40;;;;;;;;;;5051324;28;20390;-62
2022/07/03 03:10:59;;;;;;;6.57;5.55;;;;;;;;;;5055464;28;20104;-64
2022/07/03 03:13:29;;;;;;;8.90;5.57;;;;;;;;;;5055276;28;20033;-65
2022/07/03 03:16:02;;;;;;;6.45;5.38;;;;;;;;;;5055001;28;20433;-64
2022/07/03 03:18:29;;;;;;;7.30;5.70;;;;;;;;;;5055375;28;20375;-65
2022/07/03 03:20:59;;;;;;;8.63;5.55;;;;;;;;;;5055016;28;20048;-63
2022/07/03 03:23:43;;;;;;;8.43;5.80;;;;;;;;;;5055243;28;20044;-65
2022/07/03 03:26:12;;;;;;;6.70;5.70;;;;;;;;;;5055178;28;20043;-63
2022/07/03 03:28:40;;;;;;;7.18;5.60;;;;;;;;;;5054981;28;20087;-64
2022/07/03 03:31:08;;;;;;;7.57;5.68;;;;;;;;;;5055081;28;20028;-66
2022/07/03 03:33:40;;;;;;;9.10;5.85;;;;;;;;;;5054997;28;20033;-63
2022/07/03 03:36:08;;;;;;;7.50;5.57;;;;;;;;;;5054762;28;20059;-65
2022/07/03 03:38:35;;;;;;;9.02;6.03;;;;;;;;;;5054939;28;20057;-65
2022/07/03 03:41:02;;;;;;;8.15;5.43;;;;;;;;;;5054975;28;20473;-64
2022/07/03 03:43:28;;;;;;;9.23;5.90;;;;;;;;;;5054770;28;20037;-63
2022/07/03 03:45:54;;;;;;;7.20;5.63;;;;;;;;;;5054922;28;20036;-65
2022/07/03 03:48:19;;;;;;;8.68;5.60;;;;;;;;;;5054854;28;20021;-66
2022/07/03 03:50:45;;;;;;;7.43;5.20;;;;;;;;;;5054701;28;20036;-63
2022/07/03 03:53:12;;;;;;;8.45;5.65;;;;;;;;;;5054525;28;20131;-65
2022/07/03 03:55:37;;;;;;;7.43;5.47;;;;;;;;;;5054657;28;20063;-65
2022/07/03 03:58:04;;;;;;;8.02;5.10;;;;;;;;;;5054514;28;20056;-63
2022/07/03 04:00:30;;;;;;;7.53;5.75;;;;;;;;;;5054650;28;20033;-65
2022/07/03 04:02:56;;;;;;;7.75;5.78;;;;;;;;;;5054576;28;20374;-64
2022/07/03 04:05:21;;;;;;;5.78;5.22;;;;;;;;;;5054457;28;20024;-63
2022/07/03 04:07:47;;;;;;;10.88;5.18;;;;;;;;;;5054640;28;20032;-63
2022/07/03 04:10:12;;;;;;;10.25;5.30;;;;;;;;;;5054433;28;20077;-62
2022/07/03 04:12:38;;;;;;;8.90;5.68;;;;;;;;;;5054173;28;20124;-63
2022/07/03 04:15:04;;;;;;;9.43;5.50;;;;;;;;;;5054355;28;20033;-66
2022/07/03 04:17:29;;;;;;;8.25;5.50;;;;;;;;;;5054151;28;20450;-64
2022/07/03 04:19:55;;;;;;;7.22;5.10;;;;;;;;;;5053423;28;20045;-65
2022/07/03 04:22:21;;;;;;;6.80;5.35;;;;;;;;;;5052922;28;20053;-63
2022/07/03 04:24:46;;;;;;;7.47;5.38;;;;;;;;;;5053953;28;20078;-64
2022/07/03 04:27:12;;;;;;;7.07;5.40;;;;;;;;;;5053971;28;20359;-62
2022/07/03 04:29:37;;;;;;;8.15;5.53;;;;;;;;;;5054079;28;20083;-65
2022/07/03 04:32:03;;;;;;;7.85;5.45;;;;;;;;;;5053880;28;20037;-63
2022/07/03 04:34:30;;;;;;;8.02;5.13;;;;;;;;;;5054009;28;20094;-65
2022/07/03 04:36:56;;;;;;;7.93;4.90;;;;;;;;;;5053613;28;20025;-63
2022/07/03 04:39:21;;;;;;;8.55;5.18;;;;;;;;;;5053816;28;20363;-65
2022/07/03 04:41:47;;;;;;;7.22;5.32;;;;;;;;;;5053583;28;20375;-65
2022/07/03 04:44:12;;;;;;;10.35;5.22;;;;;;;;;;5053790;28;20029;-63
2022/07/03 04:46:38;;;;;;;9.40;5.20;;;;;;;;;;5053678;28;20438;-65
2022/07/03 04:49:03;;;;;;;8.02;5.10;;;;;;;;;;5053475;28;20112;-66
2022/07/03 04:51:29;;;;;;;6.75;4.88;;;;;;;;;;5053381;28;20024;-64
2022/07/03 04:53:54;;;;;;;6.10;4.82;;;;;;;;;;5053631;28;20056;-65
2022/07/03 04:56:20;;;;;;;8.57;4.43;;;;;;;;;;5053318;28;20068;-65
2022/07/03 04:58:45;;;;;;;7.50;4.72;;;;;;;;;;5053312;28;20108;-65
2022/07/03 05:01:11;;;;;;;5.63;4.55;;;;;;;;;;5053409;28;20064;-65
2022/07/03 05:03:37;;;;;;;6.03;5.18;;;;;;;;;;5053280;28;20033;-65
2022/07/03 05:06:02;;;;;;;8.57;4.88;;;;;;;;;;5053379;28;20029;-65
2022/07/03 05:08:28;;;;;;;7.22;4.38;;;;;;;;;;5053181;28;20043;-65
2022/07/03 05:10:53;;;;;;;8.05;4.80;;;;;;;;;;5052947;28;20029;-65
2022/07/03 05:13:19;;;;;;;11.48;4.53;;;;;;;;;;5053145;28;20424;-65
2022/07/03 05:15:45;;;;;;;5.20;3.92;;;;;;;;;;5053263;28;20112;-65
2022/07/03 05:18:10;;;;;;;8.07;4.05;;;;;;;;;;5053126;28;20111;-65
2022/07/03 05:20:36;;;;;;;8.13;4.65;;;;;;;;;;5052833;28;20421;-65
2022/07/03 05:23:02;;;;;;;5.80;3.75;;;;;;;;;;5052935;28;20055;-65
2022/07/03 05:25:30;;;;;;;4.50;3.67;;;;;;;;;;5052709;28;20029;-64
2022/07/03 05:27:56;;;;;;;8.55;4.18;;;;;;;;;;5052758;28;20033;-64
2022/07/03 05:30:23;;;;;;;6.70;4.00;;;;;;;;;;5052908;28;20025;-65
2022/07/03 05:32:50;;;;;;;6.20;4.03;;;;;;;;;;5051767;28;20025;-65
2022/07/03 05:35:15;;;;;;;5.50;3.72;;;;;;;;;;5052852;28;20431;-64
2022/07/03 05:37:41;;;;;;;3.65;2.95;;;;;;;;;;5052605;28;20052;-65
2022/07/03 05:40:08;;;;;;;5.47;3.50;;;;;;;;;;5052492;28;20059;-64
2022/07/03 05:42:33;;;;;;;4.07;3.35;;;;;;;;;;5052867;28;20029;-65
2022/07/03 05:45:00;;;;;;;6.13;3.85;;;;;;;;;;5052696;28;20027;-63
2022/07/03 05:47:25;;;;;;;8.02;4.50;;;;;;;;;;5052708;28;20105;-66
2022/07/03 05:49:51;;;;;;;7.80;4.40;;;;;;;;;;5052596;28;20063;-64
2022/07/03 05:52:17;;;;;;;5.28;4.47;;;;;;;;;;5052456;28;20037;-65
2022/07/03 05:54:42;;;;;;;7.00;4.20;;;;;;;;;;5052358;28;20033;-65
2022/07/03 05:57:08;;;;;;;6.28;3.85;;;;;;;;;;5052454;28;20025;-66
2022/07/03 05:59:34;;;;;;;5.90;3.85;;;;;;;;;;5052367;28;20112;-66
2022/07/03 06:02:00;;;;;;;7.13;3.85;;;;;;;;;;5052311;28;20033;-64
2022/07/03 06:04:25;;;;;;;6.38;4.10;;;;;;;;;;5052481;28;20033;-65
2022/07/03 06:06:51;;;;;;;6.93;3.65;;;;;;;;;;5052405;28;20025;-65
2022/07/03 06:09:16;;;;;;;9.52;4.20;;;;;;;;;;5052139;28;20029;-65
2022/07/03 06:11:42;;;;;;;6.97;4.00;;;;;;;;;;5052262;28;20032;-66
2022/07/03 06:14:07;;;;;;;4.82;3.47;;;;;;;;;;5052321;28;20029;-66
2022/07/03 06:16:33;;;;;;;4.57;3.13;;;;;;;;;;5052387;28;20032;-66
2022/07/03 06:18:59;;;;;;;6.22;3.40;;;;;;;;;;5052284;28;20032;-63
2022/07/03 06:21:24;;;;;;;3.97;2.72;;;;;;;;;;5051891;28;20114;-65
2022/07/03 06:23:50;;;;;;;5.05;3.20;;;;;;;;;;5052075;28;20040;-65
2022/07/03 06:26:16;;;;;;;9.48;3.13;;;;;;;;;;5052227;28;20025;-66
2022/07/03 06:28:42;;;;;;;4.82;2.90;;;;;;;;;;5052026;28;20483;-65
2022/07/03 06:31:08;;;;;;;4.85;2.85;;;;;;;;;;5052092;28;20348;-64
2022/07/03 06:33:33;;;;;;;14.77;3.38;;;;;;;;;;5052200;28;20036;-64
2022/07/03 06:35:59;;;;;;;7.43;3.15;;;;;;;;;;5052153;28;20033;-65
2022/07/03 06:38:24;;;;;;;6.07;3.00;;;;;;;;;;5051621;28;20032;-65
2022/07/03 06:40:50;;;;;;;5.00;2.95;;;;;;;;;;5052121;28;20028;-65
2022/07/03 06:43:16;;;;;;;5.43;2.78;;;;;;;;;;5052877;28;20112;-65
2022/07/03 06:45:41;;;;;;;7.85;3.42;;;;;;;;;;5056234;28;20077;-65
2022/07/03 06:48:07;;;;;;;5.63;3.25;;;;;;;;;;5055791;28;20029;-66
2022/07/03 06:50:32;;;;;;;3.78;2.70;;;;;;;;;;5055473;28;20017;-65
2022/07/03 06:52:58;;;;;;;6.53;3.17;;;;;;;;;;5055461;28;20021;-66
2022/07/03 06:55:23;;;;;;;5.60;3.10;;;;;;;;;;5055857;28;20025;-66
2022/07/03 06:57:49;;;;;;;6.10;2.92;;;;;;;;;;5055910;28;20031;-66
2022/07/03 07:00:15;;;;;;;4.22;2.92;;;;;;;;;;5055736;28;20100;-65
2022/07/03 07:02:40;;;;;;;5.28;2.80;;;;;;;;;;5055637;28;20021;-65
2022/07/03 07:05:06;;;;;;;5.32;2.80;;;;;;;;;;5054665;28;20035;-66
2022/07/03 07:07:31;;;;;;;4.30;2.50;;;;;;;;;;5055196;28;20110;-64
2022/07/03 07:09:57;;;;;;;5.50;2.63;;;;;;;;;;5055661;28;20036;-64
2022/07/03 07:12:23;;;;;;;5.55;2.60;;;;;;;;;;5055358;28;20076;-65
2022/07/03 07:14:48;;;;;;;3.50;2.35;;;;;;;;;;5055414;28;20048;-64
2022/07/03 07:17:14;;;;;;;3.95;2.88;;;;;;;;;;5055488;28;20464;-63
2022/07/03 07:19:39;;;;;;;6.50;2.22;;;;;;;;;;5054971;28;20055;-66
2022/07/03 07:22:05;;;;;;;5.45;3.00;;;;;;;;;;5054851;28;20478;-63
2022/07/03 07:24:30;;;;;;;5.57;2.78;;;;;;;;;;5055348;28;20029;-64
2022/07/03 07:26:56;;;;;;;3.97;2.90;;;;;;;;;;5055268;28;20049;-64
2022/07/03 07:29:22;;;;;;;8.30;2.53;;;;;;;;;;5055311;28;20017;-64
2022/07/03 07:31:47;;;;;;;4.32;2.55;;;;;;;;;;5055061;28;20032;-63
2022/07/03 07:34:13;;;;;;;5.07;2.22;;;;;;;;;;5055139;28;20057;-62
2022/07/03 07:36:39;;;;;;;7.60;2.58;;;;;;;;;;5053503;28;20024;-63
2022/07/03 07:39:05;;;;;;;3.75;2.33;;;;;;;;;;5054916;28;20059;-66
2022/07/03 07:41:30;;;;;;;6.90;2.78;;;;;;;;;;5055004;28;20025;-66
2022/07/03 07:43:56;;;;;;;5.00;2.30;;;;;;;;;;5054904;28;20023;-65
2022/07/03 07:46:22;;;;;;;2.90;2.38;;;;;;;;;;5054948;28;20059;-65
2022/07/03 07:48:47;;;;;;;3.90;2.60;;;;;;;;;;5054860;28;20218;-65
2022/07/03 07:51:13;;;;;;;5.10;2.20;;;;;;;;;;5054529;28;20033;-65
2022/07/03 07:53:39;;;;;;;5.40;2.65;;;;;;;;;;5054582;28;20143;-65
2022/07/03 07:56:04;;;;;;;5.10;2.28;;;;;;;;;;5053641;28;20054;-66
2022/07/03 07:58:30;;;;;;;6.43;2.00;;;;;;;;;;5054925;28;20075;-65
2022/07/03 08:06:24;;;;;;;6.53;2.00;;;;;;;;;;5054350;28;20086;-66
2022/07/03 08:08:49;;;;;;;2.70;1.80;;;;;;;;;;5054495;28;20021;-66
2022/07/03 08:11:15;;;;;;;5.20;1.98;;;;;;;;;;5054301;28;20030;-64
2022/07/03 08:13:40;;;;;;;4.20;2.20;;;;;;;;;;5054156;28;20065;-65
2022/07/03 08:16:06;;;;;;;3.70;1.85;;;;;;;;;;5054139;28;20414;-65
2022/07/03 08:18:32;;;;;;;3.17;1.80;;;;;;;;;;5052683;28;20120;-65
2022/07/03 08:20:57;;;;;;;2.42;1.70;;;;;;;;;;5053828;28;20041;-66
2022/07/03 08:23:23;;;;;;;2.88;1.27;;;;;;;;;;5054165;28;20037;-64
2022/07/03 08:25:48;;;;;;;3.85;1.73;;;;;;;;;;5052853;28;20120;-64
2022/07/03 08:28:14;;;;;;;4.00;1.85;;;;;;;;;;5054104;28;20052;-65
2022/07/03 08:30:39;;;;;;;3.47;1.52;;;;;;;;;;5054070;28;20021;-65
2022/07/03 08:33:05;;;;;;;5.20;1.90;;;;;;;;;;5053832;28;20111;-63
2022/07/03 08:35:31;;;;;;;5.45;1.90;;;;;;;;;;5053929;28;20021;-63
2022/07/03 08:37:57;;;;;;;3.75;1.80;;;;;;;;;;5053915;28;20037;-65
2022/07/03 08:40:23;;;;;;;5.03;1.85;;;;;;;;;;5053862;28;20056;-63
2022/07/03 08:43:03;;;;;;;2.42;1.48;;;;;;;;;;5053471;28;20021;-63
2022/07/03 08:45:30;;;;;;;4.30;2.00;;;;;;;;;;5053886;28;20090;-63
2022/07/03 08:47:58;;;;;;;4.43;1.88;;;;;;;;;;5053543;28;20047;-65
2022/07/03 08:50:24;;;;;;;3.03;1.90;;;;;;;;;;5053692;28;20478;-66
2022/07/03 08:52:51;;;;;;;2.92;1.70;;;;;;;;;;5053658;28;20055;-65
2022/07/03 08:55:18;;;;;;;2.80;1.90;;;;;;;;;;5053745;28;20052;-65
2022/07/03 08:57:45;;;;;;;2.85;1.52;;;;;;;;;;5053503;28;20029;-63
2022/07/03 09:00:13;;;;;;;6.88;2.00;;;;;;;;;;5053246;28;20029;-66
2022/07/03 09:02:41;;;;;;;7.15;1.73;;;;;;;;;;5053275;28;20041;-64
2022/07/03 09:05:08;;;;;;;5.40;1.67;;;;;;;;;;5053152;28;20024;-66
2022/07/03 09:07:38;;;;;;;6.95;1.63;;;;;;;;;;5053279;28;20436;-64
2022/07/03 09:10:06;;;;;;;2.85;1.70;;;;;;;;;;5053385;28;20025;-63
2022/07/03 09:12:32;;;;;;;4.20;1.70;;;;;;;;;;5053198;28;20124;-64
2022/07/03 09:14:59;;;;;;;4.95;2.45;;;;;;;;;;5053177;28;20208;-64
2022/07/03 09:17:24;;;;;;;2.28;1.60;;;;;;;;;;5052960;28;20074;-64
2022/07/03 09:19:50;;;;;;;3.28;1.42;;;;;;;;;;5053121;28;20037;-65
2022/07/03 09:22:28;;;;;;;5.00;1.73;;;;;;;;;;5052837;28;20107;-64
2022/07/03 09:25:06;;;;;;;5.05;1.70;;;;;;;;;;5052950;28;20029;-65
2022/07/03 09:27:33;;;;;;;3.53;1.65;;;;;;;;;;5053141;28;20115;-66
2022/07/03 09:30:08;;;;;;;3.45;1.80;;;;;;;;;;5053036;28;20046;-63
2022/07/03 09:32:36;;;;;;;3.67;1.90;;;;;;;;;;5052721;28;20029;-65
2022/07/03 09:35:23;;;;;;;4.40;1.70;;;;;;;;;;5052883;28;20033;-63
2022/07/03 09:37:56;;;;;;;4.22;1.50;;;;;;;;;;5052715;28;20406;-66
2022/07/03 09:40:23;;;;;;;2.25;1.70;;;;;;;;;;5052975;28;20021;-64
2022/07/03 09:42:57;;;;;;;2.35;1.50;;;;;;;;;;5052481;28;20380;-66
2022/07/03 09:45:23;;;;;;;5.10;1.65;;;;;;;;;;5052517;28;20067;-62
2022/07/03 09:47:49;;;;;;;2.58;1.50;;;;;;;;;;5052730;28;20474;-66
2022/07/03 09:50:15;;;;;;;2.70;1.65;;;;;;;;;;5052621;28;20470;-63
2022/07/03 09:52:43;;;;;;;2.75;1.60;;;;;;;;;;5052543;28;20024;-66
2022/07/03 09:55:08;;;;;;;2.90;1.52;;;;;;;;;;5052651;28;20035;-64
2022/07/03 09:57:39;;;;;;;3.45;1.75;;;;;;;;;;5052408;28;20028;-63
2022/07/03 10:00:20;;;;;;;2.72;1.63;;;;;;;;;;5052376;28;20025;-65
2022/07/03 10:03:03;;;;;;;3.42;1.80;;;;;;;;;;5052625;28;20021;-63
2022/07/03 10:05:30;;;;;;;2.47;1.40;;;;;;;;;;5052586;28;20052;-66
2022/07/03 10:08:15;;;;;;;3.20;1.80;;;;;;;;;;5052557;28;20049;-66
2022/07/03 10:10:42;;;;;;;2.30;1.45;;;;;;;;;;5052378;28;20052;-65
2022/07/03 10:13:09;;;;;;;3.33;1.50;;;;;;;;;;5052419;28;20035;-65
2022/07/03 10:15:39;;;;;;;3.13;1.55;;;;;;;;;;5052228;28;20528;-66
2022/07/03 10:18:07;;;;;;;1.75;1.30;;;;;;;;;;5052813;28;20030;-66
2022/07/03 10:20:48;;;;;;;3.97;1.50;;;;;;;;;;5056220;28;20061;-65
2022/07/03 10:23:21;;;;;;;3.50;1.48;;;;;;;;;;5056502;28;20086;-66
2022/07/03 10:25:49;;;;;;;5.88;1.50;;;;;;;;;;5056437;28;20032;-63
2022/07/03 10:28:18;;;;;;;4.73;1.40;;;;;;;;;;5056327;28;20497;-65
2022/07/03 10:30:46;;;;;;;3.17;1.30;;;;;;;;;;5056092;28;20017;-66
2022/07/03 10:33:12;;;;;;;4.07;1.70;;;;;;;;;;5055986;28;20036;-64
2022/07/03 10:35:41;;;;;;;3.58;1.90;;;;;;;;;;5056161;28;20036;-65
2022/07/03 10:38:13;;;;;;;;;;;;;;;;;;5056383;28;20037;-64
2022/07/03 10:46:23;;;;;;;2.22;1.55;;;;;;;;;;5056378;28;20154;-65
2022/07/03 10:48:57;;;;;;;4.43;1.50;;;;;;;;;;5055933;28;20359;-65
2022/07/03 10:51:23;;;;;;;2.80;1.50;;;;;;;;;;5055623;28;20029;-65
2022/07/03 10:53:49;;;;;;;3.72;1.50;;;;;;;;;;5055988;28;20067;-64
2022/07/03 10:56:15;;;;;;;2.97;1.40;;;;;;;;;;5055806;28;20074;-65
2022/07/03 10:59:00;;;;;;;4.53;1.75;;;;;;;;;;5055601;28;20040;-64
2022/07/03 11:01:34;;;;;;;4.72;1.73;;;;;;;;;;5055601;28;20028;-65
2022/07/03 11:04:03;;;;;;;2.40;1.38;;;;;;;;;;5055599;28;20029;-66
2022/07/03 11:06:43;;;;;;;5.47;1.52;;;;;;;;;;5055702;28;20106;-65
2022/07/03 11:09:10;;;;;;;3.85;1.98;;;;;;;;;;5055566;28;20039;-65
2022/07/03 11:11:57;;;;;;;6.10;2.30;;;;;;;;;;5055325;28;20040;-66
2022/07/03 11:14:29;;;;;;;3.08;1.45;;;;;;;;;;5055242;28;20207;-66
2022/07/03 11:17:18;;;;;;;2.72;1.60;;;;;;;;;;5055546;28;20375;-65
2022/07/03 11:19:44;;;;;;;6.25;1.40;;;;;;;;;;5055287;28;20037;-66
2022/07/03 11:22:19;;;;;;;3.03;1.70;;;;;;;;;;5055028;28;20044;-66
2022/07/03 11:24:45;;;;;;;2.65;1.60;;;;;;;;;;5055359;28;20063;-66
2022/07/03 11:27:19;;;;;;;2.15;1.27;;;;;;;;;;5054961;28;20079;-65
2022/07/03 11:29:54;;;;;;;4.90;1.35;;;;;;;;;;5054898;28;20031;-67
2022/07/03 11:32:45;;;;;;;3.80;2.30;;;;;;;;;;5054981;28;20079;-67
2022/07/03 11:35:42;;;;;;;2.45;1.45;;;;;;;;;;5055113;28;20052;-66
2022/07/03 11:38:08;;;;;;;4.25;1.58;;;;;;;;;;5054818;28;20059;-66
2022/07/03 11:40:36;;;;;;;3.13;1.35;;;;;;;;;;5055035;28;20060;-67
2022/07/03 11:43:02;;;;;;;2.58;1.30;;;;;;;;;;5054707;28;20035;-67
2022/07/03 11:45:30;;;;;;;3.05;1.38;;;;;;;;;;5054824;28;20032;-65
2022/07/03 11:47:56;;;;;;;1.88;1.23;;;;;;;;;;5054643;28;20086;-66
2022/07/03 11:50:39;;;;;;;4.13;1.40;;;;;;;;;;5054864;28;20033;-66
2022/07/03 11:53:24;;;;;;;2.40;1.58;;;;;;;;;;5054782;28;20037;-66
2022/07/03 11:55:51;;;;;;;7.65;1.60;;;;;;;;;;5054544;28;20467;-65
2022/07/03 11:58:17;;;;;;;3.47;1.40;;;;;;;;;;5054419;28;20096;-66
2022/07/03 12:00:43;;;;;;;2.38;1.40;;;;;;;;;;5054455;28;20025;-66
2022/07/03 12:03:14;;;;;;;3.08;1.40;;;;;;;;;;5054157;28;20032;-66
2022/07/03 12:05:53;;;;;;;3.92;1.52;;;;;;;;;;5054450;28;20327;-67
2022/07/03 12:08:23;;;;;;;4.78;1.50;;;;;;;;;;5054338;28;20106;-63
2022/07/03 12:10:49;;;;;;;4.15;1.40;;;;;;;;;;5054035;28;20474;-65
2022/07/03 12:13:22;;;;;;;4.97;1.70;;;;;;;;;;5054101;28;20029;-66
2022/07/03 12:15:48;;;;;;;3.85;1.30;;;;;;;;;;5054422;28;20029;-66
2022/07/03 12:18:14;;;;;;;5.45;1.30;;;;;;;;;;5053968;28;20032;-65
2022/07/03 12:20:40;;;;;;;7.93;1.45;;;;;;;;;;5053914;28;20045;-66
2022/07/03 12:23:05;;;;;;;1.88;1.20;;;;;;;;;;5054383;28;20136;-66
2022/07/03 12:25:31;;;;;;;2.70;1.30;;;;;;;;;;5054017;28;20087;-66
2022/07/03 12:27:57;;;;;;;6.80;2.97;;;;;;;;;;5054229;28;20029;-66
2022/07/03 12:30:25;;;;;;;2.85;1.23;;;;;;;;;;5054033;28;20025;-65
2022/07/03 12:32:51;;;;;;;2.90;1.48;;;;;;;;;;5053835;28;20033;-66
2022/07/03 12:35:27;;;;;;;2.45;1.42;;;;;;;;;;5053836;28;20033;-66
2022/07/03 12:37:53;;;;;;;2.45;1.40;;;;;;;;;;5054084;28;20020;-66
2022/07/03 12:40:19;;;;;;;3.38;1.98;;;;;;;;;;5053707;28;20075;-66
2022/07/03 12:42:46;;;;;;;2.13;1.40;;;;;;;;;;5053308;28;20052;-65
2022/07/03 12:45:14;;;;;;;2.33;1.48;;;;;;;;;;5053746;28;20489;-67
2022/07/03 12:47:40;;;;;;;5.35;1.38;;;;;;;;;;5053782;28;20071;-66
2022/07/03 12:50:07;;;;;;;3.50;1.50;;;;;;;;;;5053545;28;20103;-66
2022/07/03 12:52:48;;;;;;;2.80;1.52;;;;;;;;;;5053709;28;20495;-65
2022/07/03 12:55:23;;;;;;;2.70;1.73;;;;;;;;;;5053428;28;20029;-65
2022/07/03 13:00:43;;;;;;;2.92;1.80;;;;;;;;;;5053589;28;20051;-65
2022/07/03 13:03:26;;;;;;;3.65;1.50;;;;;;;;;;5053524;28;20021;-63
2022/07/03 13:05:52;;;;;;;2.50;1.33;;;;;;;;;;5053281;28;20021;-63
2022/07/03 13:08:17;;;;;;;3.38;1.48;;;;;;;;;;5053124;28;20031;-65
2022/07/03 13:10:43;;;;;;;4.28;2.65;;;;;;;;;;5053225;28;20079;-66
2022/07/03 13:13:08;;;;;;;4.35;1.80;;;;;;;;;;5053288;28;20470;-65
2022/07/03 13:15:34;;;;;;;3.08;1.40;;;;;;;;;;5053164;28;20036;-63
2022/07/03 13:18:00;;;;;;;3.67;1.60;;;;;;;;;;5053191;28;20025;-66
2022/07/03 13:20:27;;;;;;;2.55;1.40;;;;;;;;;;5052860;28;20040;-64
2022/07/03 13:22:59;;;;;;;2.17;1.33;;;;;;;;;;5052670;28;20098;-65
2022/07/03 13:25:24;;;;;;;2.85;1.20;;;;;;;;;;5053104;28;20052;-65
2022/07/03 13:27:50;;;;;;;4.47;1.40;;;;;;;;;;5053017;28;20061;-64
2022/07/03 13:30:18;;;;;;;3.88;1.30;;;;;;;;;;5052943;28;20071;-64
2022/07/03 13:32:44;;;;;;;2.83;1.20;;;;;;;;;;5052881;28;20520;-63
2022/07/03 13:35:10;;;;;;;7.13;1.52;;;;;;;;;;5052799;28;20398;-63
2022/07/03 13:37:36;;;;;;;2.95;1.42;;;;;;;;;;5052603;28;20025;-65
2022/07/03 13:40:03;;;;;;;3.20;1.60;;;;;;;;;;5052789;28;20094;-65
2022/07/03 13:42:29;;;;;;;3.03;1.35;;;;;;;;;;5052844;28;20062;-65
2022/07/03 13:44:54;;;;;;;3.60;1.20;;;;;;;;;;5052780;28;20032;-64
2022/07/03 13:47:20;;;;;;;3.35;1.30;;;;;;;;;;5052740;28;20103;-62
2022/07/03 13:49:46;;;;;;;1.85;1.20;;;;;;;;;;5052663;28;20033;-65
2022/07/03 13:52:11;;;;;;;3.13;1.38;;;;;;;;;;5052205;28;20312;-63
2022/07/03 13:54:37;;;;;;;2.45;1.40;;;;;;;;;;5052081;28;20024;-66
2022/07/03 13:57:03;;;;;;;3.95;1.40;;;;;;;;;;5052412;28;20017;-65
2022/07/03 13:59:32;;;;;;;3.50;1.77;;;;;;;;;;5052615;28;20024;-66
2022/07/03 14:01:58;;;;;;;3.30;1.77;;;;;;;;;;5052612;28;20062;-65
2022/07/03 14:04:24;;;;;;;2.15;1.35;;;;;;;;;;5052757;28;20049;-64
2022/07/03 14:06:50;;;;;;;4.10;1.70;;;;;;;;;;5052469;28;20063;-65
2022/07/03 14:09:15;;;;;;;3.00;1.50;;;;;;;;;;5052573;28;20032;-64
2022/07/03 14:11:41;;;;;;;2.58;1.23;;;;;;;;;;5052458;28;20167;-65
2022/07/03 14:14:07;;;;;;;2.25;1.30;;;;;;;;;;5035797;28;20037;-63
2022/07/03 14:16:32;;;;;;;2.50;1.38;;;;;;;;;;5029249;28;20386;-65
2022/07/03 14:18:58;;;;;;;3.40;1.42;;;;;;;;;;5022896;28;20045;-63
2022/07/03 14:21:24;;;;;;;6.72;1.67;;;;;;;;;;5025039;28;20347;-61
2022/07/03 14:23:50;;;;;;;4.93;1.35;;;;;;;;;;5025512;28;20126;-66
2022/07/03 14:32:28;;;;;;;3.50;1.50;;;;;;;;;;5028333;28;20030;-65
2022/07/03 14:34:29;;;;;;;1.40;1.10;;;;;;;;;;5026197;28;20024;-65
2022/07/03 14:36:55;;;;;;;3.22;1.63;;;;;;;;;;5019818;28;20412;-64
2022/07/03 14:39:20;;;;;;;2.80;1.67;;;;;;;;;;5024749;28;20075;-65
2022/07/03 14:41:48;;;;;;;2.35;1.30;;;;;;;;;;5023185;28;20025;-61
2022/07/03 14:44:14;;;;;;;2.17;1.40;;;;;;;;;;5029112;28;20475;-60
2022/07/03 14:46:40;;;;;;;2.38;1.35;;;;;;;;;;5027941;28;20029;-64
2022/07/03 14:49:05;;;;;;;4.32;1.27;;;;;;;;;;5025656;28;20087;-65
2022/07/03 14:51:31;;;;;;;4.55;1.80;;;;;;;;;;5028816;28;20510;-64
2022/07/03 14:53:56;;;;;;;4.20;1.75;;;;;;;;;;5021898;28;20055;-62
2022/07/03 14:56:22;;;;;;;3.03;1.40;;;;;;;;;;5016788;28;20459;-60
2022/07/03 14:58:49;;;;;;;4.10;1.55;;;;;;;;;;5012257;28;20068;-64
2022/07/03 15:01:18;;;;;;;2.20;1.40;;;;;;;;;;5012026;28;20061;-64
2022/07/03 15:04:00;;;;;;;3.17;1.55;;;;;;;;;;5012138;28;20030;-64
2022/07/03 15:06:27;;;;;;;3.00;1.58;;;;;;;;;;5015578;28;20026;-65
2022/07/03 15:09:02;;;;;;;3.60;1.30;;;;;;;;;;5015660;28;20029;-65
2022/07/03 15:14:39;;;;;;;2.75;1.50;;;;;;;;;;5013994;28;20032;-66
2022/07/03 15:17:05;;;;;;;;;;;;;;;;;;5016143;28;20490;-65
2022/07/03 15:19:34;;;;;;;2.67;1.55;;;;;;;;;;5015356;28;19918;-64